Boca Raton, Florida
Current Conditions -  °F | °C
As of 6:50 AM on Monday 20 Oct 2014 (Local Time) from KBCT Reporting Station
Clear Clear  
Wind Chill: 75°   Ceiling: Unl
Heat Index: 75°   Visibility: 10mi
Dew Point: 63°   Wind: 3mph
Humidity: 65%   Direction: 130°SE
Pressure: 30"   Gusts: NA
Location:  26.35°N, 80.09°W
Report Text: KBCT 201050Z 13003KT 10SM CLR 24/17 A3000
Loading
Personal Weather Stations






























Interactive Weather Map
Tropical Storm Tracking
New forecast layout! Learn more

10-Day Weather Forecast

Advertisements
Track Severe Weather on mobile